sensor_id;sensor_type;location;lat;lon;timestamp;pressure;altitude;pressure_sealevel;temperature;humidity
54308;BME280;40208;39.778;2.710;2024-01-25T00:02:12;103066.22;;;8.09;100.00
54308;BME280;40208;39.778;2.710;2024-01-25T00:04:57;103106.00;;;8.46;100.00
54308;BME280;40208;39.778;2.710;2024-01-25T00:07:46;103052.13;;;8.05;100.00
54308;BME280;40208;39.778;2.710;2024-01-25T00:10:31;103184.59;;;9.19;100.00
54308;BME280;40208;39.778;2.710;2024-01-25T00:13:16;103104.25;;;8.56;100.00
54308;BME280;40208;39.778;2.710;2024-01-25T00:16:01;103000.94;;;7.80;100.00
54308;BME280;40208;39.778;2.710;2024-01-25T00:18:46;102970.09;;;7.67;100.00
54308;BME280;40208;39.778;2.710;2024-01-25T00:21:30;103239.34;;;9.23;100.00
54308;BME280;40208;39.778;2.710;2024-01-25T00:24:15;103103.38;;;8.70;100.00
54308;BME280;40208;39.778;2.710;2024-01-25T00:27:00;103148.34;;;8.44;100.00
54308;BME280;40208;39.778;2.710;2024-01-25T00:29:45;103087.50;;;8.54;100.00
54308;BME280;40208;39.778;2.710;2024-01-25T00:32:30;103155.47;;;8.84;100.00
54308;BME280;40208;39.778;2.710;2024-01-25T00:35:15;103183.69;;;9.12;100.00
54308;BME280;40208;39.778;2.710;2024-01-25T00:38:00;103080.38;;;8.28;100.00
54308;BME280;40208;39.778;2.710;2024-01-25T00:40:45;103089.25;;;8.62;100.00
54308;BME280;40208;39.778;2.710;2024-01-25T00:43:30;103197.84;;;9.19;100.00
54308;BME280;40208;39.778;2.710;2024-01-25T00:46:15;103050.47;;;8.52;100.00
54308;BME280;40208;39.778;2.710;2024-01-25T00:49:00;103158.13;;;8.85;100.00
54308;BME280;40208;39.778;2.710;2024-01-25T00:51:47;103170.47;;;9.05;100.00
54308;BME280;40208;39.778;2.710;2024-01-25T00:54:33;102867.88;;;7.32;100.00
54308;BME280;40208;39.778;2.710;2024-01-25T00:57:18;103054.84;;;8.58;100.00
54308;BME280;40208;39.778;2.710;2024-01-25T01:00:03;103185.41;;;9.50;100.00
54308;BME280;40208;39.778;2.710;2024-01-25T01:02:49;103151.03;;;8.81;100.00
54308;BME280;40208;39.778;2.710;2024-01-25T01:05:34;102985.09;;;7.67;100.00
54308;BME280;40208;39.778;2.710;2024-01-25T01:08:19;102782.31;;;6.58;100.00
54308;BME280;40208;39.778;2.710;2024-01-25T01:11:04;103121.84;;;8.29;100.00
54308;BME280;40208;39.778;2.710;2024-01-25T01:13:49;103105.06;;;8.35;100.00
54308;BME280;40208;39.778;2.710;2024-01-25T01:16:34;102970.13;;;7.87;100.00
54308;BME280;40208;39.778;2.710;2024-01-25T01:19:20;103052.13;;;8.01;100.00
54308;BME280;40208;39.778;2.710;2024-01-25T01:22:05;103163.38;;;8.61;100.00
54308;BME280;40208;39.778;2.710;2024-01-25T01:24:50;103105.13;;;8.56;100.00
54308;BME280;40208;39.778;2.710;2024-01-25T01:27:35;103040.72;;;8.26;100.00
54308;BME280;40208;39.778;2.710;2024-01-25T01:30:19;103029.22;;;8.20;100.00
54308;BME280;40208;39.778;2.710;2024-01-25T01:33:05;103039.72;;;7.75;100.00
54308;BME280;40208;39.778;2.710;2024-01-25T01:35:49;103168.69;;;8.81;100.00
54308;BME280;40208;39.778;2.710;2024-01-25T01:38:34;103138.69;;;8.74;100.00
54308;BME280;40208;39.778;2.710;2024-01-25T01:41:19;103075.06;;;8.16;100.00
54308;BME280;40208;39.778;2.710;2024-01-25T01:44:04;102889.91;;;7.36;100.00
54308;BME280;40208;39.778;2.710;2024-01-25T01:46:49;103014.25;;;8.25;100.00
54308;BME280;40208;39.778;2.710;2024-01-25T01:49:34;103115.72;;;8.44;100.00
54308;BME280;40208;39.778;2.710;2024-01-25T01:52:19;103079.47;;;8.06;100.00
54308;BME280;40208;39.778;2.710;2024-01-25T01:55:05;103097.19;;;8.45;100.00
54308;BME280;40208;39.778;2.710;2024-01-25T01:57:50;103121.91;;;8.46;100.00
54308;BME280;40208;39.778;2.710;2024-01-25T02:00:37;102932.22;;;7.62;100.00
54308;BME280;40208;39.778;2.710;2024-01-25T02:03:22;103143.09;;;8.67;100.00
54308;BME280;40208;39.778;2.710;2024-01-25T02:06:07;102875.75;;;7.20;100.00
54308;BME280;40208;39.778;2.710;2024-01-25T02:08:52;103107.81;;;8.76;100.00
54308;BME280;40208;39.778;2.710;2024-01-25T02:11:43;103128.97;;;8.87;100.00
54308;BME280;40208;39.778;2.710;2024-01-25T02:14:28;102938.44;;;8.02;100.00
54308;BME280;40208;39.778;2.710;2024-01-25T02:17:13;103021.31;;;8.58;100.00
54308;BME280;40208;39.778;2.710;2024-01-25T02:19:58;102979.84;;;7.99;100.00
54308;BME280;40208;39.778;2.710;2024-01-25T02:22:43;102996.59;;;8.30;100.00
54308;BME280;40208;39.778;2.710;2024-01-25T02:25:27;102941.94;;;8.11;100.00
54308;BME280;40208;39.778;2.710;2024-01-25T02:28:12;103001.84;;;7.95;100.00
54308;BME280;40208;39.778;2.710;2024-01-25T02:30:58;103098.97;;;8.56;100.00
54308;BME280;40208;39.778;2.710;2024-01-25T02:33:43;103066.31;;;8.72;100.00
54308;BME280;40208;39.778;2.710;2024-01-25T02:36:28;103076.91;;;8.90;100.00
54308;BME280;40208;39.778;2.710;2024-01-25T02:39:13;103105.13;;;8.52;100.00
54308;BME280;40208;39.778;2.710;2024-01-25T02:41:58;102945.47;;;7.91;100.00
54308;BME280;40208;39.778;2.710;2024-01-25T02:44:43;102719.94;;;6.92;100.00
54308;BME280;40208;39.778;2.710;2024-01-25T02:47:28;103058.31;;;9.17;100.00
54308;BME280;40208;39.778;2.710;2024-01-25T02:50:13;102961.34;;;8.23;100.00
54308;BME280;40208;39.778;2.710;2024-01-25T02:52:58;102924.31;;;8.26;100.00
54308;BME280;40208;39.778;2.710;2024-01-25T02:55:43;102976.31;;;8.38;100.00
54308;BME280;40208;39.778;2.710;2024-01-25T02:58:28;102955.16;;;7.98;100.00
54308;BME280;40208;39.778;2.710;2024-01-25T03:01:13;102819.41;;;7.16;100.00
54308;BME280;40208;39.778;2.710;2024-01-25T03:03:58;102701.31;;;6.32;100.00
54308;BME280;40208;39.778;2.710;2024-01-25T03:06:43;103055.72;;;8.54;100.00
54308;BME280;40208;39.778;2.710;2024-01-25T03:09:28;102926.06;;;8.03;100.00
54308;BME280;40208;39.778;2.710;2024-01-25T03:12:13;102965.72;;;7.84;100.00
54308;BME280;40208;39.778;2.710;2024-01-25T03:14:58;102920.78;;;7.64;100.00
54308;BME280;40208;39.778;2.710;2024-01-25T03:17:43;103026.63;;;8.44;100.00
54308;BME280;40208;39.778;2.710;2024-01-25T03:20:28;103030.16;;;8.57;100.00
54308;BME280;40208;39.778;2.710;2024-01-25T03:23:13;103020.44;;;8.33;100.00
54308;BME280;40208;39.778;2.710;2024-01-25T03:25:58;102866.91;;;7.01;100.00
54308;BME280;40208;39.778;2.710;2024-01-25T03:28:43;103051.28;;;8.17;100.00
54308;BME280;40208;39.778;2.710;2024-01-25T03:31:27;102947.19;;;7.60;100.00
54308;BME280;40208;39.778;2.710;2024-01-25T03:34:12;102818.41;;;6.62;100.00
54308;BME280;40208;39.778;2.710;2024-01-25T03:36:57;103032.75;;;8.14;100.00
54308;BME280;40208;39.778;2.710;2024-01-25T03:39:42;102796.41;;;6.66;100.00
54308;BME280;40208;39.778;2.710;2024-01-25T03:42:27;103060.06;;;7.98;100.00
54308;BME280;40208;39.778;2.710;2024-01-25T03:45:12;102957.75;;;7.63;100.00
54308;BME280;40208;39.778;2.710;2024-01-25T03:47:57;102981.50;;;7.54;100.00
54308;BME280;40208;39.778;2.710;2024-01-25T03:50:41;102890.53;;;6.67;100.00
54308;BME280;40208;39.778;2.710;2024-01-25T03:53:26;102941.84;;;7.34;100.00
54308;BME280;40208;39.778;2.710;2024-01-25T03:56:12;103088.28;;;8.13;100.00
54308;BME280;40208;39.778;2.710;2024-01-25T03:59:01;103068.91;;;8.21;100.00
54308;BME280;40208;39.778;2.710;2024-01-25T04:01:46;102900.34;;;7.02;100.00
54308;BME280;40208;39.778;2.710;2024-01-25T04:04:32;103013.34;;;8.11;100.00
54308;BME280;40208;39.778;2.710;2024-01-25T04:07:16;102783.97;;;6.41;100.00
54308;BME280;40208;39.778;2.710;2024-01-25T04:10:01;102870.41;;;6.91;100.00
54308;BME280;40208;39.778;2.710;2024-01-25T04:12:46;103005.38;;;7.86;100.00
54308;BME280;40208;39.778;2.710;2024-01-25T04:15:31;102940.16;;;7.62;100.00
54308;BME280;40208;39.778;2.710;2024-01-25T04:18:16;102961.28;;;7.73;100.00
54308;BME280;40208;39.778;2.710;2024-01-25T04:21:01;103043.34;;;8.26;100.00
54308;BME280;40208;39.778;2.710;2024-01-25T04:23:45;102958.66;;;7.71;100.00
54308;BME280;40208;39.778;2.710;2024-01-25T04:26:30;103040.66;;;7.94;100.00
54308;BME280;40208;39.778;2.710;2024-01-25T04:29:15;102981.56;;;7.71;100.00
54308;BME280;40208;39.778;2.710;2024-01-25T04:32:00;103007.13;;;7.87;100.00
54308;BME280;40208;39.778;2.710;2024-01-25T04:34:45;103029.13;;;7.64;100.00
54308;BME280;40208;39.778;2.710;2024-01-25T04:37:32;103007.09;;;7.67;100.00
54308;BME280;40208;39.778;2.710;2024-01-25T04:40:17;102912.81;;;7.51;100.00
54308;BME280;40208;39.778;2.710;2024-01-25T04:43:02;102611.34;;;5.51;100.00
54308;BME280;40208;39.778;2.710;2024-01-25T04:45:46;103023.94;;;8.11;100.00
54308;BME280;40208;39.778;2.710;2024-01-25T04:48:32;103001.81;;;7.69;100.00
54308;BME280;40208;39.778;2.710;2024-01-25T04:51:17;102854.63;;;7.18;100.00
54308;BME280;40208;39.778;2.710;2024-01-25T04:54:02;102955.09;;;7.48;100.00
54308;BME280;40208;39.778;2.710;2024-01-25T04:56:47;102964.75;;;7.42;100.00
54308;BME280;40208;39.778;2.710;2024-01-25T04:59:35;102993.03;;;7.85;100.00
54308;BME280;40208;39.778;2.710;2024-01-25T05:02:20;102984.16;;;7.55;100.00
54308;BME280;40208;39.778;2.710;2024-01-25T05:05:05;103041.53;;;7.96;100.00
54308;BME280;40208;39.778;2.710;2024-01-25T05:07:50;102856.22;;;6.73;100.00
54308;BME280;40208;39.778;2.710;2024-01-25T05:10:34;102940.94;;;7.29;100.00
54308;BME280;40208;39.778;2.710;2024-01-25T05:13:19;103024.72;;;7.67;100.00
54308;BME280;40208;39.778;2.710;2024-01-25T05:16:04;102872.00;;;6.59;100.00
54308;BME280;40208;39.778;2.710;2024-01-25T05:18:49;103050.09;;;7.31;100.00
54308;BME280;40208;39.778;2.710;2024-01-25T05:21:34;102933.81;;;7.03;100.00
54308;BME280;40208;39.778;2.710;2024-01-25T05:24:19;102962.84;;;7.06;100.00
54308;BME280;40208;39.778;2.710;2024-01-25T05:27:04;102924.06;;;6.90;100.00
54308;BME280;40208;39.778;2.710;2024-01-25T05:29:49;102936.34;;;6.85;100.00
54308;BME280;40208;39.778;2.710;2024-01-25T05:32:34;103009.72;;;7.59;100.00
54308;BME280;40208;39.778;2.710;2024-01-25T05:35:19;102952.25;;;7.01;100.00
54308;BME280;40208;39.778;2.710;2024-01-25T05:38:04;102910.75;;;6.68;100.00
54308;BME280;40208;39.778;2.710;2024-01-25T05:40:48;102873.84;;;6.74;100.00
54308;BME280;40208;39.778;2.710;2024-01-25T05:43:33;102960.38;;;7.52;100.00
54308;BME280;40208;39.778;2.710;2024-01-25T05:46:18;102953.28;;;7.37;100.00
54308;BME280;40208;39.778;2.710;2024-01-25T05:49:03;102893.28;;;6.99;100.00
54308;BME280;40208;39.778;2.710;2024-01-25T05:51:48;102845.69;;;6.70;100.00
54308;BME280;40208;39.778;2.710;2024-01-25T05:54:33;102766.94;;;5.83;100.00
54308;BME280;40208;39.778;2.710;2024-01-25T05:57:18;102976.06;;;7.06;100.00
54308;BME280;40208;39.778;2.710;2024-01-25T06:00:04;102888.56;;;6.29;100.00
54308;BME280;40208;39.778;2.710;2024-01-25T06:02:52;103009.47;;;6.98;100.00
54308;BME280;40208;39.778;2.710;2024-01-25T06:05:37;103016.53;;;7.07;100.00
54308;BME280;40208;39.778;2.710;2024-01-25T06:08:22;102813.75;;;6.15;100.00
54308;BME280;40208;39.778;2.710;2024-01-25T06:11:07;103034.25;;;7.31;100.00
54308;BME280;40208;39.778;2.710;2024-01-25T06:13:53;102756.38;;;5.79;100.00
54308;BME280;40208;39.778;2.710;2024-01-25T06:16:38;102859.72;;;6.60;100.00
54308;BME280;40208;39.778;2.710;2024-01-25T06:19:22;103034.41;;;7.60;100.00
54308;BME280;40208;39.778;2.710;2024-01-25T06:22:07;102896.72;;;6.72;100.00
54308;BME280;40208;39.778;2.710;2024-01-25T06:24:52;102992.84;;;7.20;100.00
54308;BME280;40208;39.778;2.710;2024-01-25T06:27:37;102851.59;;;6.23;100.00
54308;BME280;40208;39.778;2.710;2024-01-25T06:30:22;102971.47;;;6.76;100.00
54308;BME280;40208;39.778;2.710;2024-01-25T06:33:07;102877.31;;;6.69;100.00
54308;BME280;40208;39.778;2.710;2024-01-25T06:35:54;102768.72;;;5.84;100.00
54308;BME280;40208;39.778;2.710;2024-01-25T06:38:39;103013.19;;;7.46;100.00
54308;BME280;40208;39.778;2.710;2024-01-25T06:41:24;102901.06;;;6.69;100.00
54308;BME280;40208;39.778;2.710;2024-01-25T06:44:09;102995.41;;;7.05;100.00
54308;BME280;40208;39.778;2.710;2024-01-25T06:46:54;102935.34;;;6.58;100.00
54308;BME280;40208;39.778;2.710;2024-01-25T06:49:39;103022.66;;;7.01;100.00
54308;BME280;40208;39.778;2.710;2024-01-25T06:52:24;102954.63;;;6.48;100.00
54308;BME280;40208;39.778;2.710;2024-01-25T06:55:09;102943.13;;;6.43;100.00
54308;BME280;40208;39.778;2.710;2024-01-25T06:57:54;102700.56;;;5.08;100.00
54308;BME280;40208;39.778;2.710;2024-01-25T07:00:39;102995.25;;;6.74;100.00
54308;BME280;40208;39.778;2.710;2024-01-25T07:03:26;102953.06;;;6.82;100.00
54308;BME280;40208;39.778;2.710;2024-01-25T07:06:11;102993.78;;;7.32;100.00
54308;BME280;40208;39.778;2.710;2024-01-25T07:08:56;102801.22;;;5.85;100.00
54308;BME280;40208;39.778;2.710;2024-01-25T07:11:41;103006.88;;;7.07;100.00
54308;BME280;40208;39.778;2.710;2024-01-25T07:14:26;102860.47;;;6.41;100.00
54308;BME280;40208;39.778;2.710;2024-01-25T07:17:11;102946.84;;;6.75;100.00
54308;BME280;40208;39.778;2.710;2024-01-25T07:19:56;102857.66;;;6.10;100.00
54308;BME280;40208;39.778;2.710;2024-01-25T07:22:40;102864.63;;;6.05;100.00
54308;BME280;40208;39.778;2.710;2024-01-25T07:25:25;102952.06;;;6.66;100.00
54308;BME280;40208;39.778;2.710;2024-01-25T07:28:10;102791.28;;;5.48;100.00
54308;BME280;40208;39.778;2.710;2024-01-25T07:30:55;102984.81;;;6.96;100.00
54308;BME280;40208;39.778;2.710;2024-01-25T07:33:40;102821.66;;;6.15;100.00
54308;BME280;40208;39.778;2.710;2024-01-25T07:36:25;102747.59;;;5.75;100.00
54308;BME280;40208;39.778;2.710;2024-01-25T07:39:10;102842.69;;;6.09;100.00
54308;BME280;40208;39.778;2.710;2024-01-25T07:41:56;102925.63;;;6.54;100.00
54308;BME280;40208;39.778;2.710;2024-01-25T07:44:41;103011.31;;;7.14;100.00
54308;BME280;40208;39.778;2.710;2024-01-25T07:47:25;102999.78;;;7.05;100.00
54308;BME280;40208;39.778;2.710;2024-01-25T07:50:10;103038.53;;;7.03;100.00
54308;BME280;40208;39.778;2.710;2024-01-25T07:52:55;103025.34;;;7.06;100.00
54308;BME280;40208;39.778;2.710;2024-01-25T07:55:40;102644.19;;;4.80;100.00
54308;BME280;40208;39.778;2.710;2024-01-25T07:58:25;102996.16;;;6.79;100.00
54308;BME280;40208;39.778;2.710;2024-01-25T08:01:10;102947.53;;;6.45;100.00
54308;BME280;40208;39.778;2.710;2024-01-25T08:03:55;102879.63;;;6.10;100.00
54308;BME280;40208;39.778;2.710;2024-01-25T08:06:40;102981.13;;;6.69;100.00
54308;BME280;40208;39.778;2.710;2024-01-25T08:09:25;102936.16;;;6.54;100.00
54308;BME280;40208;39.778;2.710;2024-01-25T08:12:10;102791.56;;;5.88;100.00
54308;BME280;40208;39.778;2.710;2024-01-25T08:14:55;102987.44;;;6.94;100.00
54308;BME280;40208;39.778;2.710;2024-01-25T08:17:40;102891.44;;;6.78;100.00
54308;BME280;40208;39.778;2.710;2024-01-25T08:20:25;103026.47;;;7.71;100.00
54308;BME280;40208;39.778;2.710;2024-01-25T08:23:10;102851.81;;;6.63;100.00
54308;BME280;40208;39.778;2.710;2024-01-25T08:25:54;102915.28;;;6.91;100.00
54308;BME280;40208;39.778;2.710;2024-01-25T08:28:40;102926.75;;;7.07;100.00
54308;BME280;40208;39.778;2.710;2024-01-25T08:31:25;102739.03;;;6.08;100.00
54308;BME280;40208;39.778;2.710;2024-01-25T08:34:09;102960.38;;;7.43;100.00
54308;BME280;40208;39.778;2.710;2024-01-25T08:36:54;102794.63;;;6.59;100.00
54308;BME280;40208;39.778;2.710;2024-01-25T08:39:39;103026.63;;;8.40;100.00
54308;BME280;40208;39.778;2.710;2024-01-25T08:42:24;102830.91;;;7.55;100.00
54308;BME280;40208;39.778;2.710;2024-01-25T08:45:09;102822.97;;;7.75;100.00
54308;BME280;40208;39.778;2.710;2024-01-25T08:47:54;102983.34;;;8.90;100.00
54308;BME280;40208;39.778;2.710;2024-01-25T08:50:40;102934.75;;;8.96;100.00
54308;BME280;40208;39.778;2.710;2024-01-25T08:53:25;102902.97;;;8.97;100.00
54308;BME280;40208;39.778;2.710;2024-01-25T08:56:12;103031.47;;;9.89;100.00
54308;BME280;40208;39.778;2.710;2024-01-25T08:58:57;102849.97;;;9.05;100.00
54308;BME280;40208;39.778;2.710;2024-01-25T09:01:42;102749.63;;;8.53;100.00
54308;BME280;40208;39.778;2.710;2024-01-25T09:04:27;102717.91;;;8.43;100.00
54308;BME280;40208;39.778;2.710;2024-01-25T09:07:11;102962.44;;;9.98;100.00
54308;BME280;40208;39.778;2.710;2024-01-25T09:09:56;102804.81;;;9.23;100.00
54308;BME280;40208;39.778;2.710;2024-01-25T09:12:41;102990.34;;;10.48;100.00
54308;BME280;40208;39.778;2.710;2024-01-25T09:15:26;103042.16;;;10.92;100.00
54308;BME280;40208;39.778;2.710;2024-01-25T09:18:11;102953.13;;;10.54;100.00
54308;BME280;40208;39.778;2.710;2024-01-25T09:20:56;103047.81;;;11.42;100.00
54308;BME280;40208;39.778;2.710;2024-01-25T09:23:40;102979.81;;;11.22;100.00
54308;BME280;40208;39.778;2.710;2024-01-25T09:26:26;102836.91;;;10.76;100.00
54308;BME280;40208;39.778;2.710;2024-01-25T09:29:11;102991.41;;;11.82;100.00
54308;BME280;40208;39.778;2.710;2024-01-25T09:31:56;102900.78;;;11.34;100.00
54308;BME280;40208;39.778;2.710;2024-01-25T09:34:41;102912.94;;;11.52;100.00
54308;BME280;40208;39.778;2.710;2024-01-25T09:37:26;102930.38;;;11.70;100.00
54308;BME280;40208;39.778;2.710;2024-01-25T09:40:11;102918.88;;;11.69;100.00
54308;BME280;40208;39.778;2.710;2024-01-25T09:42:56;102905.66;;;11.64;100.00
54308;BME280;40208;39.778;2.710;2024-01-25T09:45:41;102940.50;;;12.06;100.00
54308;BME280;40208;39.778;2.710;2024-01-25T09:48:26;102931.59;;;12.07;100.00
54308;BME280;40208;39.778;2.710;2024-01-25T09:51:12;102941.88;;;12.29;100.00
54308;BME280;40208;39.778;2.710;2024-01-25T09:53:57;102772.25;;;11.36;100.00
54308;BME280;40208;39.778;2.710;2024-01-25T09:56:43;102968.03;;;12.55;100.00
54308;BME280;40208;39.778;2.710;2024-01-25T09:59:28;102913.41;;;12.33;100.00
54308;BME280;40208;39.778;2.710;2024-01-25T10:02:13;103031.41;;;13.34;100.00
54308;BME280;40208;39.778;2.710;2024-01-25T10:04:59;102986.41;;;13.17;100.00
54308;BME280;40208;39.778;2.710;2024-01-25T10:07:45;102983.66;;;13.19;100.00
54308;BME280;40208;39.778;2.710;2024-01-25T10:10:32;103067.84;;;13.77;100.00
54308;BME280;40208;39.778;2.710;2024-01-25T10:13:18;103057.91;;;13.84;100.00
54308;BME280;40208;39.778;2.710;2024-01-25T10:16:03;103008.78;;;13.52;100.00
54308;BME280;40208;39.778;2.710;2024-01-25T10:18:50;102822.91;;;12.75;100.00
54308;BME280;40208;39.778;2.710;2024-01-25T10:21:36;102965.66;;;13.72;100.00
54308;BME280;40208;39.778;2.710;2024-01-25T10:24:21;102801.91;;;13.00;100.00
54308;BME280;40208;39.778;2.710;2024-01-25T10:27:08;102907.00;;;13.69;100.00
54308;BME280;40208;39.778;2.710;2024-01-25T10:29:55;102918.00;;;13.92;100.00
54308;BME280;40208;39.778;2.710;2024-01-25T10:32:40;102953.59;;;14.29;100.00
54308;BME280;40208;39.778;2.710;2024-01-25T10:35:26;103005.03;;;14.71;100.00
54308;BME280;40208;39.778;2.710;2024-01-25T10:38:11;102916.63;;;14.45;100.00
54308;BME280;40208;39.778;2.710;2024-01-25T10:41:00;102875.09;;;14.33;100.00
54308;BME280;40208;39.778;2.710;2024-01-25T10:43:46;102867.16;;;14.31;100.00
54308;BME280;40208;39.778;2.710;2024-01-25T10:46:32;103013.09;;;15.34;100.00
54308;BME280;40208;39.778;2.710;2024-01-25T10:49:18;102857.41;;;14.61;100.00
54308;BME280;40208;39.778;2.710;2024-01-25T10:52:05;102925.34;;;15.15;100.00
54308;BME280;40208;39.778;2.710;2024-01-25T10:54:50;102924.66;;;15.38;100.00
54308;BME280;40208;39.778;2.710;2024-01-25T10:57:36;102873.13;;;15.32;100.00
54308;BME280;40208;39.778;2.710;2024-01-25T11:00:22;102924.53;;;15.71;100.00
54308;BME280;40208;39.778;2.710;2024-01-25T11:03:07;102946.69;;;16.03;100.00
54308;BME280;40208;39.778;2.710;2024-01-25T11:05:54;102920.22;;;15.94;100.00
54308;BME280;40208;39.778;2.710;2024-01-25T11:08:40;103009.72;;;16.66;100.00
54308;BME280;40208;39.778;2.710;2024-01-25T11:11:26;102827.31;;;15.69;100.00
54308;BME280;40208;39.778;2.710;2024-01-25T11:14:12;102970.72;;;16.58;100.00
54308;BME280;40208;39.778;2.710;2024-01-25T11:16:58;102873.41;;;16.30;100.00
54308;BME280;40208;39.778;2.710;2024-01-25T11:19:44;102881.75;;;16.46;100.00
54308;BME280;40208;39.778;2.710;2024-01-25T11:22:35;102898.50;;;16.53;100.00
54308;BME280;40208;39.778;2.710;2024-01-25T11:25:20;102819.38;;;16.18;100.00
54308;BME280;40208;39.778;2.710;2024-01-25T11:28:06;102876.88;;;16.58;100.00
54308;BME280;40208;39.778;2.710;2024-01-25T11:30:52;102891.47;;;16.74;100.00
54308;BME280;40208;39.778;2.710;2024-01-25T11:33:37;102910.28;;;16.98;100.00
54308;BME280;40208;39.778;2.710;2024-01-25T11:36:22;102723.84;;;15.93;100.00
54308;BME280;40208;39.778;2.710;2024-01-25T11:39:10;102834.34;;;16.72;100.00
54308;BME280;40208;39.778;2.710;2024-01-25T11:41:55;102785.38;;;16.43;100.00
54308;BME280;40208;39.778;2.710;2024-01-25T11:44:41;102815.91;;;16.63;100.00
54308;BME280;40208;39.778;2.710;2024-01-25T11:47:25;102850.22;;;17.02;100.00
54308;BME280;40208;39.778;2.710;2024-01-25T11:50:12;102925.84;;;17.57;100.00
54308;BME280;40208;39.778;2.710;2024-01-25T11:52:56;102860.09;;;17.23;100.00
54308;BME280;40208;39.778;2.710;2024-01-25T11:55:41;102841.81;;;17.11;100.00
54308;BME280;40208;39.778;2.710;2024-01-25T11:58:26;102716.97;;;16.57;100.00
54308;BME280;40208;39.778;2.710;2024-01-25T12:01:11;102768.13;;;16.98;100.00
54308;BME280;40208;39.778;2.710;2024-01-25T12:03:57;102881.44;;;17.70;100.00
54308;BME280;40208;39.778;2.710;2024-01-25T12:06:43;102872.50;;;17.70;100.00
54308;BME280;40208;39.778;2.710;2024-01-25T12:09:28;102857.22;;;17.50;100.00
54308;BME280;40208;39.778;2.710;2024-01-25T12:12:13;102783.34;;;17.19;100.00
54308;BME280;40208;39.778;2.710;2024-01-25T12:14:58;102845.53;;;17.73;100.00
54308;BME280;40208;39.778;2.710;2024-01-25T12:17:43;102907.16;;;18.20;100.00
54308;BME280;40208;39.778;2.710;2024-01-25T12:20:29;102736.56;;;17.25;100.00
54308;BME280;40208;39.778;2.710;2024-01-25T12:23:14;102778.69;;;17.65;100.00
54308;BME280;40208;39.778;2.710;2024-01-25T12:26:00;102899.72;;;18.46;100.00
54308;BME280;40208;39.778;2.710;2024-01-25T12:28:45;102757.97;;;17.69;100.00
54308;BME280;40208;39.778;2.710;2024-01-25T12:31:31;102797.34;;;17.90;100.00
54308;BME280;40208;39.778;2.710;2024-01-25T12:34:16;102768.22;;;17.81;100.00
54308;BME280;40208;39.778;2.710;2024-01-25T12:37:01;102781.59;;;17.83;100.00
54308;BME280;40208;39.778;2.710;2024-01-25T12:39:46;102782.66;;;17.99;100.00
54308;BME280;40208;39.778;2.710;2024-01-25T12:42:31;102742.22;;;17.82;100.00
54308;BME280;40208;39.778;2.710;2024-01-25T12:45:15;102722.34;;;17.86;100.00
54308;BME280;40208;39.778;2.710;2024-01-25T12:48:00;102729.38;;;17.88;100.00
54308;BME280;40208;39.778;2.710;2024-01-25T12:50:47;102593.63;;;17.21;100.00
54308;BME280;40208;39.778;2.710;2024-01-25T12:53:32;102712.13;;;17.94;100.00
54308;BME280;40208;39.778;2.710;2024-01-25T12:56:17;102724.84;;;18.09;100.00
54308;BME280;40208;39.778;2.710;2024-01-25T12:59:02;102792.53;;;18.57;100.00
54308;BME280;40208;39.778;2.710;2024-01-25T13:01:47;102809.06;;;18.68;100.00
54308;BME280;40208;39.778;2.710;2024-01-25T13:04:32;102763.25;;;18.51;100.00
54308;BME280;40208;39.778;2.710;2024-01-25T13:07:17;102689.78;;;18.12;100.00
54308;BME280;40208;39.778;2.710;2024-01-25T13:10:01;102634.09;;;17.76;100.00
54308;BME280;40208;39.778;2.710;2024-01-25T13:12:47;102734.19;;;18.40;100.00
54308;BME280;40208;39.778;2.710;2024-01-25T13:15:32;102740.00;;;18.31;100.00
54308;BME280;40208;39.778;2.710;2024-01-25T13:18:17;102694.03;;;17.97;100.00
54308;BME280;40208;39.778;2.710;2024-01-25T13:21:02;102767.63;;;18.53;100.00
54308;BME280;40208;39.778;2.710;2024-01-25T13:23:47;102396.38;;;16.32;100.00
54308;BME280;40208;39.778;2.710;2024-01-25T13:26:32;102796.41;;;18.70;100.00
54308;BME280;40208;39.778;2.710;2024-01-25T13:29:17;102553.63;;;17.15;100.00
54308;BME280;40208;39.778;2.710;2024-01-25T13:32:02;102712.84;;;18.37;100.00
54308;BME280;40208;39.778;2.710;2024-01-25T13:34:46;102700.69;;;18.28;100.00
54308;BME280;40208;39.778;2.710;2024-01-25T13:37:31;102643.38;;;18.09;100.00
54308;BME280;40208;39.778;2.710;2024-01-25T13:40:16;102673.88;;;18.27;100.00
54308;BME280;40208;39.778;2.710;2024-01-25T13:43:01;102755.16;;;18.70;100.00
54308;BME280;40208;39.778;2.710;2024-01-25T13:45:46;102778.06;;;18.80;100.00
54308;BME280;40208;39.778;2.710;2024-01-25T13:48:31;102724.31;;;18.40;100.00
54308;BME280;40208;39.778;2.710;2024-01-25T13:51:15;102772.53;;;18.62;100.00
54308;BME280;40208;39.778;2.710;2024-01-25T13:54:00;102586.69;;;17.56;100.00
54308;BME280;40208;39.778;2.710;2024-01-25T13:56:45;102686.06;;;18.15;100.00
54308;BME280;40208;39.778;2.710;2024-01-25T13:59:30;102650.19;;;17.97;100.00
54308;BME280;40208;39.778;2.710;2024-01-25T14:02:15;102747.91;;;18.53;100.00
54308;BME280;40208;39.778;2.710;2024-01-25T14:05:00;102749.94;;;18.67;100.00
54308;BME280;40208;39.778;2.710;2024-01-25T14:07:45;102669.50;;;18.24;100.00
54308;BME280;40208;39.778;2.710;2024-01-25T14:10:29;102536.16;;;17.46;100.00
54308;BME280;40208;39.778;2.710;2024-01-25T14:13:14;102585.50;;;17.62;100.00
54308;BME280;40208;39.778;2.710;2024-01-25T14:15:59;102518.56;;;17.20;100.00
54308;BME280;40208;39.778;2.710;2024-01-25T14:18:44;102595.38;;;17.82;100.00